Weather at Smoketown Airport

Public forecast

Using degrees Fahrenheit for public forecast. Weather courtesy of forecast.io.

Closest aviation weather report (METAR) to Smoketown Airport

Closest report is Lancaster Airport, 6.5 nm (12.0 km) NW. Retrieved 2021/01/28 14:53 UTC (15 minutes ago):

KLNS 281453Z 33019G27KT 10SM FEW035 M03/M13 A3019 RMK AO2 PK WND 32030/1436 SLP229 T10281133 51011

Closest aviation forecast (TAF) to Smoketown Airport

Closest forecast is Lancaster Airport, 6.5 nm (12.0 km) NW. Retrieved 2021/01/28 12:46 UTC (2 hours ago):

TAF KLNS 281144Z 2812/2912 34011G20KT P6SM SCT035 OVC120 FM281500 32017G27KT P6SM FEW050